createdAt,value
2017-05-20T00:00:51.441Z,93.60
2017-05-20T00:03:20.418Z,93.60
2017-05-20T00:05:48.622Z,93.60
2017-05-20T00:08:17.600Z,93.40
2017-05-20T00:10:46.581Z,93.70
2017-05-20T00:13:14.846Z,93.70
2017-05-20T00:15:43.854Z,93.50
2017-05-20T00:18:12.844Z,93.50
2017-05-20T00:20:41.807Z,93.50
2017-05-20T00:23:10.789Z,93.50
2017-05-20T00:25:39.829Z,93.50
2017-05-20T00:28:08.807Z,93.50
2017-05-20T00:30:37.778Z,93.40
2017-05-20T00:33:06.751Z,93.40
2017-05-20T00:35:35.723Z,93.50
2017-05-20T00:38:03.974Z,93.50
2017-05-20T00:40:32.934Z,93.60
2017-05-20T00:43:01.902Z,93.60
2017-05-20T00:45:30.914Z,93.60
2017-05-20T00:47:59.807Z,93.60
2017-05-20T00:50:28.826Z,93.60
2017-05-20T00:52:57.811Z,93.60
2017-05-20T00:55:26.794Z,93.70
2017-05-20T00:57:55.774Z,93.50
2017-05-20T01:00:24.756Z,93.60
2017-05-20T01:02:53.746Z,93.50
2017-05-20T01:05:22.777Z,93.60
2017-05-20T01:07:51.747Z,94.10
2017-05-20T01:10:20.732Z,93.80
2017-05-20T01:12:49.685Z,94.20
2017-05-20T01:15:18.669Z,94.10
2017-05-20T01:17:47.647Z,94.20
2017-05-20T01:20:16.661Z,94.30
2017-05-20T01:22:45.628Z,94.20
2017-05-20T01:25:14.610Z,94.30
2017-05-20T01:27:43.608Z,94.30
2017-05-20T01:30:12.583Z,94.40
2017-05-20T01:32:41.533Z,94.40
2017-05-20T01:35:10.505Z,94.40
2017-05-20T01:37:39.456Z,94.40
2017-05-20T01:40:08.474Z,94.40
2017-05-20T01:42:37.339Z,94.40
2017-05-20T01:45:06.344Z,94.40
2017-05-20T01:47:35.288Z,94.40
2017-05-20T01:50:04.349Z,94.30
2017-05-20T01:52:33.262Z,94.30
2017-05-20T01:55:02.238Z,94.30
2017-05-20T01:57:31.205Z,94.30
2017-05-20T02:00:00.192Z,94.30
2017-05-20T02:02:29.159Z,94.40
2017-05-20T02:04:58.162Z,94.40
2017-05-20T02:07:27.140Z,94.50
2017-05-20T02:09:56.113Z,94.50
2017-05-20T02:12:25.051Z,94.30
2017-05-20T02:14:54.013Z,94.30
2017-05-20T02:17:22.974Z,94.20
2017-05-20T02:19:51.971Z,94.10
2017-05-20T02:22:20.924Z,94.00
2017-05-20T02:24:49.915Z,94.10
2017-05-20T02:27:18.880Z,94.00
2017-05-20T02:29:47.867Z,94.10
2017-05-20T02:32:16.828Z,94.20
2017-05-20T02:34:45.853Z,94.50
2017-05-20T02:37:14.812Z,94.10
2017-05-20T02:39:43.780Z,94.10
2017-05-20T02:42:12.734Z,93.90
2017-05-20T02:44:42.030Z,94.00
2017-05-20T02:47:10.991Z,93.90
2017-05-20T02:49:39.958Z,93.80
2017-05-20T02:52:08.951Z,93.70
2017-05-20T02:54:37.920Z,93.60
2017-05-20T02:57:06.921Z,93.60
2017-05-20T02:59:35.881Z,93.60
2017-05-20T03:02:04.858Z,93.60
2017-05-20T03:04:33.811Z,93.70
2017-05-20T03:07:02.021Z,93.70
2017-05-20T03:09:30.982Z,93.70
2017-05-20T03:11:59.976Z,93.80
2017-05-20T03:14:28.940Z,93.90
2017-05-20T03:16:57.920Z,93.80
2017-05-20T03:19:26.900Z,93.80
2017-05-20T03:21:55.885Z,93.80
2017-05-20T03:24:24.857Z,93.90
2017-05-20T03:26:53.846Z,94.00
2017-05-20T03:29:22.829Z,94.10
2017-05-20T03:31:51.829Z,94.00
2017-05-20T03:34:20.778Z,94.10
2017-05-20T03:36:49.771Z,94.20
2017-05-20T03:39:18.761Z,94.00
2017-05-20T03:41:47.033Z,94.00
2017-05-20T03:44:15.994Z,94.00
2017-05-20T03:46:44.996Z,94.00
2017-05-20T03:49:13.953Z,94.10
2017-05-20T03:51:42.950Z,94.10
2017-05-20T03:54:11.932Z,94.20
2017-05-20T03:56:40.876Z,94.20
2017-05-20T03:59:09.828Z,94.10
2017-05-20T04:01:38.804Z,94.20
2017-05-20T04:04:07.770Z,94.30
2017-05-20T04:06:36.741Z,94.40
2017-05-20T04:09:05.687Z,94.40
2017-05-20T04:11:34.679Z,94.40
2017-05-20T04:14:03.648Z,94.20
2017-05-20T04:16:32.639Z,94.20
2017-05-20T04:19:01.587Z,94.20
2017-05-20T04:21:30.571Z,94.30
2017-05-20T04:23:59.540Z,94.30
2017-05-20T04:26:28.506Z,94.20
2017-05-20T04:28:57.459Z,94.10
2017-05-20T04:31:26.434Z,94.10
2017-05-20T04:33:55.402Z,94.00
2017-05-20T04:36:24.387Z,93.90
2017-05-20T04:38:53.369Z,93.90
2017-05-20T04:41:22.342Z,93.80
2017-05-20T04:43:51.324Z,93.70
2017-05-20T04:46:20.315Z,93.60
2017-05-20T04:48:49.271Z,93.40
2017-05-20T04:51:18.248Z,93.40
2017-05-20T04:53:47.211Z,93.30
2017-05-20T04:56:16.543Z,93.10
2017-05-20T04:58:45.506Z,93.10
2017-05-20T05:01:14.484Z,93.10
2017-05-20T05:03:43.467Z,93.20
2017-05-20T05:06:12.424Z,93.20
2017-05-20T05:08:41.388Z,93.30
2017-05-20T05:11:10.330Z,93.20
2017-05-20T05:13:39.311Z,93.20
2017-05-20T05:16:08.284Z,93.80
2017-05-20T05:18:37.248Z,93.30
2017-05-20T05:21:06.222Z,93.10
2017-05-20T05:23:35.196Z,93.30
2017-05-20T05:26:04.158Z,93.30
2017-05-20T05:28:33.161Z,93.20
2017-05-20T05:31:02.125Z,93.70
2017-05-20T05:33:31.116Z,94.10
2017-05-20T05:36:00.102Z,92.90
2017-05-20T05:38:29.083Z,92.00
2017-05-20T05:40:58.044Z,93.40
2017-05-20T05:43:27.067Z,92.60
2017-05-20T05:45:55.939Z,92.10
2017-05-20T05:48:25.014Z,90.80
2017-05-20T05:50:53.985Z,91.20
2017-05-20T05:53:22.955Z,90.20
2017-05-20T05:55:51.942Z,88.80
2017-05-20T05:58:20.916Z,89.20
2017-05-20T06:00:49.893Z,88.90
2017-05-20T06:03:18.881Z,89.20
2017-05-20T06:05:47.850Z,88.80
2017-05-20T06:08:16.792Z,90.70
2017-05-20T06:10:45.754Z,90.60
2017-05-20T06:13:14.739Z,89.00
2017-05-20T06:15:43.737Z,87.80
2017-05-20T06:18:12.721Z,87.10
2017-05-20T06:20:41.714Z,88.10
2017-05-20T06:23:10.715Z,87.60
2017-05-20T06:25:39.793Z,87.40
2017-05-20T06:28:08.787Z,86.00
2017-05-20T06:30:37.748Z,86.90
2017-05-20T06:33:06.731Z,86.70
2017-05-20T06:35:35.701Z,86.50
2017-05-20T06:38:04.689Z,87.00
2017-05-20T06:40:33.675Z,86.60
2017-05-20T06:43:02.667Z,86.60
2017-05-20T06:45:31.621Z,87.40
2017-05-20T06:48:00.568Z,87.40
2017-05-20T06:50:29.565Z,87.40
2017-05-20T06:52:58.568Z,87.50
2017-05-20T06:55:27.540Z,86.60
2017-05-20T06:57:56.552Z,86.00
2017-05-20T07:00:25.512Z,85.40
2017-05-20T07:02:54.504Z,85.50
2017-05-20T07:05:23.465Z,85.40
2017-05-20T07:07:52.733Z,84.40
2017-05-20T07:10:21.697Z,84.00
2017-05-20T07:12:50.684Z,83.90
2017-05-20T07:15:19.670Z,84.10
2017-05-20T07:17:48.644Z,83.80
2017-05-20T07:20:17.633Z,82.90
2017-05-20T07:22:46.608Z,81.90
2017-05-20T07:25:15.582Z,82.10
2017-05-20T07:27:44.538Z,81.90
2017-05-20T07:30:13.623Z,82.30
2017-05-20T07:32:42.569Z,83.20
2017-05-20T07:35:11.570Z,83.20
2017-05-20T07:37:40.558Z,82.50
2017-05-20T07:40:09.582Z,82.00
2017-05-20T07:42:38.557Z,81.40
2017-05-20T07:45:07.573Z,81.20
2017-05-20T07:47:36.565Z,81.20
2017-05-20T07:50:05.477Z,80.90
2017-05-20T07:52:34.495Z,80.50
2017-05-20T07:55:03.489Z,80.20
2017-05-20T07:57:32.471Z,80.20
2017-05-20T08:00:01.481Z,80.60
2017-05-20T08:02:30.442Z,79.90
2017-05-20T08:04:59.454Z,79.30
2017-05-20T08:07:28.442Z,79.90
2017-05-20T08:09:57.430Z,80.10
2017-05-20T08:12:26.416Z,79.90
2017-05-20T08:14:55.409Z,79.60
2017-05-20T08:17:24.314Z,79.10
2017-05-20T08:19:53.345Z,78.80
2017-05-20T08:22:22.339Z,77.00
2017-05-20T08:24:51.347Z,77.50
2017-05-20T08:27:20.317Z,78.10
2017-05-20T08:29:49.334Z,77.90
2017-05-20T08:32:18.390Z,77.10
2017-05-20T08:34:47.375Z,75.80
2017-05-20T08:37:16.329Z,74.90
2017-05-20T08:39:45.354Z,73.40
2017-05-20T08:42:14.333Z,74.20
2017-05-20T08:44:42.557Z,74.20
2017-05-20T08:47:11.544Z,73.70
2017-05-20T08:49:40.562Z,73.60
2017-05-20T08:52:09.464Z,73.40
2017-05-20T08:54:38.478Z,72.80
2017-05-20T08:57:07.429Z,72.90
2017-05-20T08:59:36.421Z,72.10
2017-05-20T09:02:05.876Z,70.50
2017-05-20T09:04:34.869Z,70.60
2017-05-20T09:07:03.825Z,69.50
2017-05-20T09:09:32.826Z,69.10
2017-05-20T09:12:01.804Z,68.50
2017-05-20T09:14:31.082Z,68.60
2017-05-20T09:17:00.092Z,68.60
2017-05-20T09:19:28.970Z,69.20
2017-05-20T09:21:58.270Z,68.50
2017-05-20T09:24:27.236Z,69.00
2017-05-20T09:26:56.208Z,68.20
2017-05-20T09:29:25.480Z,68.00
2017-05-20T09:31:54.429Z,68.30
2017-05-20T09:34:23.407Z,66.30
2017-05-20T09:36:52.724Z,65.80
2017-05-20T09:39:21.653Z,65.70
2017-05-20T09:41:50.622Z,64.90
2017-05-20T09:44:19.902Z,64.80
2017-05-20T09:46:48.888Z,66.20
2017-05-20T09:49:17.894Z,65.90
2017-05-20T09:51:47.187Z,63.70
2017-05-20T09:54:16.165Z,63.50
2017-05-20T09:56:45.135Z,62.20
2017-05-20T09:59:14.380Z,63.10
2017-05-20T10:01:42.633Z,63.00
2017-05-20T10:04:11.610Z,63.30
2017-05-20T10:06:40.805Z,61.60
2017-05-20T10:09:09.828Z,60.70
2017-05-20T10:11:38.795Z,59.10
2017-05-20T10:14:08.006Z,57.50
2017-05-20T10:16:36.206Z,57.50
2017-05-20T10:19:05.180Z,55.20
2017-05-20T10:21:34.465Z,55.50
2017-05-20T10:24:03.422Z,56.50
2017-05-20T10:26:32.394Z,57.70
2017-05-20T10:29:01.649Z,58.20
2017-05-20T10:31:30.623Z,58.00
2017-05-20T10:33:59.616Z,57.60
2017-05-20T10:36:28.877Z,56.00
2017-05-20T10:38:57.978Z,55.30
2017-05-20T10:41:26.929Z,55.20
2017-05-20T10:43:56.204Z,55.00
2017-05-20T10:46:25.183Z,53.20
2017-05-20T10:48:54.133Z,54.20
2017-05-20T10:51:23.387Z,54.60
2017-05-20T10:53:52.358Z,55.80
2017-05-20T10:56:21.356Z,55.40
2017-05-20T10:58:50.786Z,54.80
2017-05-20T11:01:19.760Z,55.10
2017-05-20T11:03:48.664Z,55.00
2017-05-20T11:06:18.061Z,53.80
2017-05-20T11:08:47.043Z,53.30
2017-05-20T11:11:16.051Z,53.90
2017-05-20T11:13:45.328Z,54.40
2017-05-20T11:16:14.292Z,52.80
2017-05-20T11:18:43.343Z,51.60
2017-05-20T11:21:12.603Z,50.10
2017-05-20T11:23:47.090Z,48.30
2017-05-20T11:26:16.519Z,44.90
2017-05-20T11:28:45.478Z,44.50
2017-05-20T11:31:14.434Z,46.90
2017-05-20T11:33:43.706Z,49.30
2017-05-20T11:36:12.714Z,49.90
2017-05-20T11:38:41.682Z,51.20
2017-05-20T11:41:10.993Z,52.00
2017-05-20T11:43:39.950Z,53.00
2017-05-20T11:46:08.894Z,53.50
2017-05-20T11:48:38.178Z,54.50
2017-05-20T11:51:07.085Z,54.00
2017-05-20T11:53:36.108Z,52.00
2017-05-20T11:56:05.466Z,50.30
2017-05-20T11:58:34.433Z,47.30
2017-05-20T12:01:03.415Z,44.80
2017-05-20T12:03:32.653Z,45.50
2017-05-20T12:06:01.664Z,46.60
2017-05-20T12:08:31.142Z,45.00
2017-05-20T12:11:00.415Z,43.20
2017-05-20T12:13:29.412Z,42.50
2017-05-20T12:15:58.382Z,42.80
2017-05-20T12:18:27.609Z,39.90
2017-05-20T12:20:56.624Z,39.80
2017-05-20T12:23:24.845Z,39.80
2017-05-20T12:25:54.100Z,40.70
2017-05-20T12:28:23.054Z,39.20
2017-05-20T12:30:52.011Z,37.70
2017-05-20T12:33:20.534Z,37.60
2017-05-20T12:35:49.511Z,34.80
2017-05-20T12:38:18.458Z,34.50
2017-05-20T12:40:47.725Z,35.90
2017-05-20T12:43:16.771Z,37.30
2017-05-20T12:45:45.765Z,36.10
2017-05-20T12:48:15.111Z,36.60
2017-05-20T12:50:44.073Z,36.20
2017-05-20T12:53:13.029Z,35.80
2017-05-20T12:55:42.268Z,37.00
2017-05-20T12:58:11.247Z,36.50
2017-05-20T13:00:40.271Z,37.20
2017-05-20T13:03:09.650Z,37.70
2017-05-20T13:05:38.609Z,38.10
2017-05-20T13:08:07.597Z,37.00
2017-05-20T13:10:36.807Z,36.70
2017-05-20T13:13:05.763Z,35.70
2017-05-20T13:15:34.836Z,34.60
2017-05-20T13:18:04.039Z,35.10
2017-05-20T13:20:33.030Z,36.00
2017-05-20T13:23:02.008Z,35.90
2017-05-20T13:25:31.272Z,34.10
2017-05-20T13:28:00.257Z,35.00
2017-05-20T13:30:29.219Z,35.00
2017-05-20T13:32:57.634Z,35.00
2017-05-20T13:35:26.590Z,36.10
2017-05-20T13:37:55.556Z,37.50
2017-05-20T13:40:24.909Z,37.50
2017-05-20T13:42:53.935Z,39.10
2017-05-20T13:45:22.903Z,39.20
2017-05-20T13:47:52.171Z,40.20
2017-05-20T13:50:21.134Z,40.80
2017-05-20T13:52:50.090Z,40.20
2017-05-20T13:55:19.326Z,40.50
2017-05-20T13:57:48.290Z,40.90
2017-05-20T14:00:17.265Z,41.80
2017-05-20T14:02:46.552Z,41.90
2017-05-20T14:05:15.518Z,42.30
2017-05-20T14:07:44.526Z,43.60
2017-05-20T14:10:13.837Z,44.10
2017-05-20T14:12:42.833Z,43.30
2017-05-20T14:15:11.802Z,42.40
2017-05-20T14:17:41.097Z,42.10
2017-05-20T14:20:10.079Z,42.10
2017-05-20T14:22:39.034Z,41.70
2017-05-20T14:25:08.434Z,42.20
2017-05-20T14:27:37.407Z,43.40
2017-05-20T14:30:06.398Z,44.60
2017-05-20T14:32:35.609Z,45.30
2017-05-20T14:35:04.622Z,46.10
2017-05-20T14:37:33.569Z,46.10
2017-05-20T14:40:02.866Z,45.40
2017-05-20T14:42:31.838Z,45.80
2017-05-20T14:45:00.798Z,46.00
2017-05-20T14:47:30.069Z,46.80
2017-05-20T14:49:59.038Z,46.00
2017-05-20T14:52:27.991Z,45.60
2017-05-20T14:54:57.302Z,44.80
2017-05-20T14:57:26.281Z,44.00
2017-05-20T14:59:55.271Z,44.40
2017-05-20T15:02:24.482Z,43.80
2017-05-20T15:04:53.525Z,43.80
2017-05-20T15:07:22.477Z,43.30
2017-05-20T15:09:51.694Z,43.40
2017-05-20T15:12:20.650Z,43.90
2017-05-20T15:14:49.612Z,43.90
2017-05-20T15:17:18.915Z,44.40
2017-05-20T15:19:47.867Z,45.30
2017-05-20T15:22:16.971Z,44.90
2017-05-20T15:24:46.341Z,45.70
2017-05-20T15:27:15.314Z,45.00
2017-05-20T15:29:44.279Z,43.90
2017-05-20T15:32:13.617Z,44.40
2017-05-20T15:34:42.745Z,44.30
2017-05-20T15:37:11.727Z,44.40
2017-05-20T15:39:40.929Z,44.60
2017-05-20T15:42:09.893Z,44.40
2017-05-20T15:44:38.876Z,43.50
2017-05-20T15:47:08.190Z,43.10
2017-05-20T15:49:37.163Z,42.40
2017-05-20T15:52:06.132Z,42.10
2017-05-20T15:54:35.457Z,42.60
2017-05-20T15:57:04.425Z,41.60
2017-05-20T15:59:33.398Z,41.20
2017-05-20T16:02:02.727Z,39.50
2017-05-20T16:04:31.739Z,39.70
2017-05-20T16:07:00.713Z,38.60
2017-05-20T16:09:30.030Z,39.70
2017-05-20T16:11:59.020Z,39.30
2017-05-20T16:14:27.991Z,38.30
2017-05-20T16:16:57.333Z,38.90
2017-05-20T16:19:26.333Z,39.50
2017-05-20T16:21:55.312Z,40.30
2017-05-20T16:24:24.590Z,40.00
2017-05-20T16:26:53.554Z,39.10
2017-05-20T16:29:22.522Z,38.50
2017-05-20T16:31:51.762Z,38.80
2017-05-20T16:34:20.736Z,39.20
2017-05-20T16:36:49.734Z,40.30
2017-05-20T16:39:19.058Z,40.20
2017-05-20T16:41:48.025Z,39.80
2017-05-20T16:44:16.928Z,40.90
2017-05-20T16:46:45.944Z,41.20
2017-05-20T16:49:14.912Z,41.40
2017-05-20T16:51:43.479Z,41.40
2017-05-20T16:54:12.511Z,42.20
2017-05-20T16:56:41.452Z,42.90
2017-05-20T16:59:10.772Z,43.10
2017-05-20T17:01:39.782Z,43.70
2017-05-20T17:04:08.758Z,43.50
2017-05-20T17:06:38.050Z,44.10
2017-05-20T17:09:07.018Z,45.10
2017-05-20T17:11:35.996Z,45.50
2017-05-20T17:14:11.139Z,45.40
2017-05-20T17:16:40.131Z,45.50
2017-05-20T17:19:09.105Z,46.20
2017-05-20T17:21:38.359Z,46.20
2017-05-20T17:24:07.342Z,46.50
2017-05-20T17:26:36.311Z,46.90
2017-05-20T17:29:05.619Z,46.80
2017-05-20T17:31:34.586Z,47.20
2017-05-20T17:34:03.561Z,48.00
2017-05-20T17:36:32.788Z,49.30
2017-05-20T17:39:01.740Z,50.60
2017-05-20T17:41:30.735Z,51.70
2017-05-20T17:44:00.017Z,52.30
2017-05-20T17:46:29.000Z,52.20
2017-05-20T17:48:57.975Z,52.40
2017-05-20T17:51:27.163Z,52.90
2017-05-20T17:53:56.173Z,54.40
2017-05-20T17:56:25.135Z,55.00
2017-05-20T17:58:54.450Z,56.00
2017-05-20T18:01:23.449Z,57.40
2017-05-20T18:03:52.422Z,57.80
2017-05-20T18:06:20.895Z,57.80
2017-05-20T18:08:49.887Z,59.60
2017-05-20T18:11:18.859Z,60.40
2017-05-20T18:13:48.182Z,61.50
2017-05-20T18:16:17.210Z,63.10
2017-05-20T18:18:46.193Z,64.60
2017-05-20T18:21:15.456Z,64.90
2017-05-20T18:23:44.355Z,65.80
2017-05-20T18:26:13.350Z,66.40
2017-05-20T18:28:42.637Z,67.00
2017-05-20T18:31:11.596Z,67.30
2017-05-20T18:33:40.573Z,67.60
2017-05-20T18:36:09.933Z,67.90
2017-05-20T18:38:38.934Z,67.70
2017-05-20T18:41:07.945Z,67.20
2017-05-20T18:43:36.947Z,68.00
2017-05-20T18:46:05.915Z,69.60
2017-05-20T18:48:34.939Z,70.40
2017-05-20T18:51:03.905Z,71.20
2017-05-20T18:53:32.816Z,72.30
2017-05-20T18:56:01.850Z,72.60
2017-05-20T18:58:30.854Z,71.90
2017-05-20T19:00:59.837Z,71.60
2017-05-20T19:03:28.856Z,71.80
2017-05-20T19:05:57.810Z,72.00
2017-05-20T19:08:26.805Z,72.30
2017-05-20T19:10:55.773Z,72.50
2017-05-20T19:13:24.726Z,72.10
2017-05-20T19:15:53.707Z,71.60
2017-05-20T19:18:22.722Z,71.00
2017-05-20T19:20:51.702Z,71.30
2017-05-20T19:23:20.696Z,71.60
2017-05-20T19:25:48.906Z,71.10
2017-05-20T19:28:17.897Z,71.00
2017-05-20T19:30:46.861Z,71.30
2017-05-20T19:33:15.869Z,71.90
2017-05-20T19:35:44.923Z,72.10
2017-05-20T19:38:13.911Z,72.70
2017-05-20T19:40:42.893Z,74.20
2017-05-20T19:43:11.108Z,74.10
2017-05-20T19:45:40.085Z,76.40
2017-05-20T19:48:09.065Z,76.90
2017-05-20T19:50:38.048Z,77.60
2017-05-20T19:53:07.049Z,77.60
2017-05-20T19:55:36.029Z,77.60
2017-05-20T19:58:05.045Z,78.20
2017-05-20T20:00:34.016Z,78.20
2017-05-20T20:03:02.315Z,78.10
2017-05-20T20:05:31.294Z,78.30
2017-05-20T20:08:00.379Z,78.70
2017-05-20T20:10:29.366Z,79.50
2017-05-20T20:12:58.282Z,79.90
2017-05-20T20:15:26.512Z,80.00
2017-05-20T20:17:55.551Z,81.40
2017-05-20T20:20:24.485Z,81.40
2017-05-20T20:22:53.495Z,80.90
2017-05-20T20:25:22.476Z,80.70
2017-05-20T20:27:51.498Z,80.70
2017-05-20T20:30:20.510Z,81.20
2017-05-20T20:32:49.469Z,81.70
2017-05-20T20:35:18.476Z,81.40
2017-05-20T20:37:47.447Z,81.40
2017-05-20T20:40:16.450Z,81.60
2017-05-20T20:42:45.427Z,82.40
2017-05-20T20:45:14.406Z,82.30
2017-05-20T20:47:43.377Z,82.70
2017-05-20T20:50:12.269Z,83.00
2017-05-20T20:52:41.275Z,83.40
2017-05-20T20:55:10.271Z,84.00
2017-05-20T20:57:39.253Z,84.50
2017-05-20T21:00:08.266Z,84.80
2017-05-20T21:02:37.304Z,84.80
2017-05-20T21:05:06.251Z,85.00
2017-05-20T21:07:35.248Z,85.10
2017-05-20T21:10:04.229Z,84.80
2017-05-20T21:12:35.104Z,84.40
2017-05-20T21:15:04.100Z,82.80
2017-05-20T21:17:33.076Z,81.50
2017-05-20T21:20:02.055Z,81.00
2017-05-20T21:22:31.025Z,80.80
2017-05-20T21:25:00.026Z,80.20
2017-05-20T21:27:28.999Z,79.80
2017-05-20T21:29:58.106Z,79.80
2017-05-20T21:32:27.093Z,79.50
2017-05-20T21:34:56.115Z,79.70
2017-05-20T21:37:25.123Z,80.00
2017-05-20T21:39:54.110Z,80.00
2017-05-20T21:42:23.065Z,80.20
2017-05-20T21:44:52.088Z,80.40
2017-05-20T21:47:21.057Z,80.10
2017-05-20T21:49:50.030Z,80.00
2017-05-20T21:52:18.978Z,80.00
2017-05-20T21:54:47.988Z,80.20
2017-05-20T21:57:16.947Z,80.20
2017-05-20T21:59:45.928Z,80.00
2017-05-20T22:02:14.928Z,79.60
2017-05-20T22:04:43.951Z,79.50
2017-05-20T22:07:12.931Z,79.50
2017-05-20T22:09:41.926Z,79.50
2017-05-20T22:12:10.892Z,79.20
2017-05-20T22:14:39.906Z,79.40
2017-05-20T22:17:08.855Z,79.40
2017-05-20T22:19:37.860Z,79.40
2017-05-20T22:22:06.917Z,79.70
2017-05-20T22:24:35.948Z,80.00
2017-05-20T22:27:04.906Z,79.80
2017-05-20T22:29:33.882Z,79.70
2017-05-20T22:32:02.855Z,79.90
2017-05-20T22:34:31.857Z,79.80
2017-05-20T22:37:00.830Z,79.90
2017-05-20T22:39:29.797Z,79.60
2017-05-20T22:41:58.793Z,79.60
2017-05-20T22:44:27.768Z,79.40
2017-05-20T22:46:56.769Z,79.20
2017-05-20T22:49:25.737Z,79.00
2017-05-20T22:51:54.743Z,78.90
2017-05-20T22:54:23.701Z,78.60
2017-05-20T22:56:52.690Z,78.90
2017-05-20T22:59:21.665Z,78.60
2017-05-20T23:01:49.893Z,78.60
2017-05-20T23:04:18.873Z,79.20
2017-05-20T23:06:47.878Z,78.90
2017-05-20T23:09:16.851Z,78.90
2017-05-20T23:11:45.861Z,79.00
2017-05-20T23:14:13.989Z,78.90
2017-05-20T23:16:43.018Z,79.00
2017-05-20T23:19:11.985Z,79.10
2017-05-20T23:21:40.995Z,79.00
2017-05-20T23:24:09.966Z,79.00
2017-05-20T23:26:38.957Z,79.30
2017-05-20T23:29:07.937Z,79.10
2017-05-20T23:31:36.923Z,79.00
2017-05-20T23:34:05.891Z,79.00
2017-05-20T23:36:34.877Z,79.10
2017-05-20T23:39:03.882Z,79.30
2017-05-20T23:41:32.903Z,79.60
2017-05-20T23:44:01.869Z,80.70
2017-05-20T23:46:30.102Z,79.90
2017-05-20T23:48:59.081Z,80.50
2017-05-20T23:51:28.061Z,80.30
2017-05-20T23:53:57.036Z,80.40
2017-05-20T23:56:26.021Z,80.30
2017-05-20T23:58:54.993Z,80.30
